createdAt,value
2022-12-05T00:01:34.994Z,15.52
2022-12-05T00:03:39.677Z,14.25
2022-12-05T00:05:43.326Z,12.80
2022-12-05T00:07:46.799Z,14.30
2022-12-05T00:09:50.923Z,12.23
2022-12-05T00:11:54.573Z,11.88
2022-12-05T00:14:00.819Z,13.65
2022-12-05T00:16:10.313Z,13.70
2022-12-05T00:18:14.023Z,12.65
2022-12-05T00:20:19.003Z,15.07
2022-12-05T00:22:22.284Z,13.95
2022-12-05T00:24:25.766Z,14.15
2022-12-05T00:26:30.154Z,15.25
2022-12-05T00:28:34.411Z,15.00
2022-12-05T00:30:41.202Z,12.77
2022-12-05T00:32:44.537Z,19.48
2022-12-05T00:34:48.311Z,16.80
2022-12-05T00:36:53.159Z,13.82
2022-12-05T00:38:57.888Z,14.52
2022-12-05T00:41:05.126Z,18.33
2022-12-05T00:43:08.568Z,26.70
2022-12-05T00:45:12.700Z,31.05
2022-12-05T00:47:16.101Z,23.58
2022-12-05T00:49:19.734Z,24.77
2022-12-05T00:51:27.128Z,19.02
2022-12-05T00:53:32.660Z,17.13
2022-12-05T00:55:38.524Z,17.83
2022-12-05T00:57:42.125Z,16.58
2022-12-05T00:59:47.766Z,19.67
2022-12-05T01:01:52.904Z,18.45
2022-12-05T01:03:59.617Z,16.50
2022-12-05T01:06:07.830Z,20.33
2022-12-05T01:08:11.334Z,20.38
2022-12-05T01:10:17.953Z,21.27
2022-12-05T01:12:21.443Z,17.38
2022-12-05T01:14:27.715Z,33.03
2022-12-05T01:16:35.170Z,20.65
2022-12-05T01:18:38.538Z,18.55
2022-12-05T01:20:42.504Z,18.48
2022-12-05T01:22:46.090Z,21.30
2022-12-05T01:24:49.555Z,24.98
2022-12-05T01:26:56.192Z,22.10
2022-12-05T01:28:59.801Z,22.95
2022-12-05T01:31:08.722Z,23.92
2022-12-05T01:33:13.385Z,21.33
2022-12-05T01:35:17.095Z,22.13
2022-12-05T01:37:20.967Z,20.52
2022-12-05T01:39:24.513Z,20.50
2022-12-05T01:41:30.488Z,21.45
2022-12-05T01:43:53.286Z,22.27
2022-12-05T01:45:56.934Z,18.65
2022-12-05T01:48:02.455Z,21.25
2022-12-05T01:50:08.164Z,20.25
2022-12-05T01:52:16.197Z,22.83
2022-12-05T01:54:21.417Z,22.48
2022-12-05T01:56:24.919Z,22.38
2022-12-05T01:58:34.471Z,20.83
2022-12-05T02:00:41.048Z,19.98
2022-12-05T02:02:55.403Z,19.52
2022-12-05T02:05:06.703Z,22.00
2022-12-05T02:07:10.876Z,19.20
2022-12-05T02:09:15.009Z,22.05
2022-12-05T02:11:19.517Z,25.98
2022-12-05T02:13:49.692Z,24.00
2022-12-05T02:16:02.575Z,23.95
2022-12-05T02:18:25.067Z,19.15
2022-12-05T02:20:45.134Z,20.80
2022-12-05T02:23:29.406Z,20.40
2022-12-05T02:26:17.742Z,19.17
2022-12-05T02:28:57.306Z,18.08
2022-12-05T02:31:09.663Z,16.25
2022-12-05T02:33:22.797Z,17.75
2022-12-05T02:35:42.003Z,16.08
2022-12-05T02:37:55.489Z,16.17
2022-12-05T02:40:07.823Z,16.73
2022-12-05T02:42:19.540Z,16.45
2022-12-05T02:44:33.162Z,16.80
2022-12-05T02:46:41.094Z,16.67
2022-12-05T02:48:47.554Z,16.02
2022-12-05T02:50:53.832Z,14.52
2022-12-05T02:53:03.342Z,14.07
2022-12-05T02:55:10.406Z,18.92
2022-12-05T02:57:15.075Z,17.25
2022-12-05T02:59:23.138Z,15.60
2022-12-05T03:01:32.998Z,17.40
2022-12-05T03:03:38.498Z,14.38
2022-12-05T03:05:48.534Z,14.77
2022-12-05T03:07:57.396Z,15.52
2022-12-05T03:10:06.678Z,16.02
2022-12-05T03:12:14.673Z,13.43
2022-12-05T03:14:24.785Z,15.82
2022-12-05T03:16:34.589Z,18.55
2022-12-05T03:18:45.143Z,14.82
2022-12-05T03:20:53.563Z,16.00
2022-12-05T03:23:01.786Z,16.10
2022-12-05T03:25:06.162Z,15.50
2022-12-05T03:27:20.225Z,14.23
2022-12-05T03:29:31.404Z,13.25
2022-12-05T03:31:43.859Z,13.77
2022-12-05T03:33:52.429Z,11.88
2022-12-05T03:36:04.557Z,12.05
2022-12-05T03:38:14.086Z,14.10
2022-12-05T03:40:30.454Z,14.50
2022-12-05T03:42:38.055Z,10.68
2022-12-05T03:44:51.996Z,12.15
2022-12-05T03:47:00.445Z,11.80
2022-12-05T03:49:11.124Z,12.88
2022-12-05T03:51:18.346Z,11.50
2022-12-05T03:53:28.501Z,11.80
2022-12-05T03:55:37.425Z,10.52
2022-12-05T03:57:51.499Z,15.18
2022-12-05T04:00:00.729Z,11.43
2022-12-05T04:02:12.025Z,11.25
2022-12-05T04:04:23.006Z,11.98
2022-12-05T04:06:32.047Z,13.45
2022-12-05T04:08:43.834Z,13.98
2022-12-05T04:10:50.947Z,13.40
2022-12-05T04:13:00.022Z,10.35
2022-12-05T04:15:09.733Z,11.68
2022-12-05T04:17:19.230Z,12.05
2022-12-05T04:19:50.929Z,11.27
2022-12-05T04:21:56.779Z,10.90
2022-12-05T04:24:17.987Z,10.38
2022-12-05T04:26:32.846Z,9.73
2022-12-05T04:28:41.559Z,11.13
2022-12-05T04:30:51.551Z,11.48
2022-12-05T04:33:07.264Z,14.95
2022-12-05T04:35:17.013Z,10.73
2022-12-05T04:37:26.329Z,11.75
2022-12-05T04:39:38.635Z,9.75
2022-12-05T04:41:50.132Z,12.57
2022-12-05T04:44:01.088Z,13.32
2022-12-05T04:46:10.667Z,14.45
2022-12-05T04:48:18.794Z,17.13
2022-12-05T04:50:28.622Z,16.05
2022-12-05T04:52:32.987Z,15.60
2022-12-05T04:54:40.555Z,14.63
2022-12-05T04:56:47.374Z,16.63
2022-12-05T04:58:50.972Z,12.93
2022-12-05T05:01:07.520Z,17.38
2022-12-05T05:03:19.460Z,11.32
2022-12-05T05:05:25.281Z,14.82
2022-12-05T05:07:29.415Z,12.38
2022-12-05T05:09:33.471Z,14.73
2022-12-05T05:11:37.908Z,16.85
2022-12-05T05:13:41.941Z,21.20
2022-12-05T05:15:45.375Z,21.58
2022-12-05T05:17:48.809Z,13.30
2022-12-05T05:20:14.401Z,10.52
2022-12-05T05:22:21.737Z,8.82
2022-12-05T05:24:26.349Z,10.32
2022-12-05T05:26:32.538Z,10.27
2022-12-05T05:28:37.743Z,8.88
2022-12-05T05:30:41.325Z,9.07
2022-12-05T05:32:45.227Z,12.43
2022-12-05T05:34:48.710Z,10.18
2022-12-05T05:36:54.031Z,10.80
2022-12-05T05:39:12.929Z,8.35
2022-12-05T05:41:19.572Z,9.98
2022-12-05T05:43:23.064Z,7.90
2022-12-05T05:45:26.380Z,8.68
2022-12-05T05:47:29.683Z,8.15
2022-12-05T05:49:33.143Z,8.45
2022-12-05T05:51:36.400Z,9.93
2022-12-05T05:53:39.995Z,7.95
2022-12-05T05:55:44.656Z,10.05
2022-12-05T05:57:48.146Z,9.15
2022-12-05T05:59:51.497Z,9.13
2022-12-05T06:01:54.720Z,8.55
2022-12-05T06:03:58.866Z,9.45
2022-12-05T06:06:05.731Z,9.00
2022-12-05T06:08:08.997Z,8.75
2022-12-05T06:10:14.048Z,8.82
2022-12-05T06:12:18.991Z,7.90
2022-12-05T06:14:22.276Z,8.00
2022-12-05T06:16:26.370Z,8.80
2022-12-05T06:18:30.143Z,10.02
2022-12-05T06:20:33.454Z,12.00
2022-12-05T06:22:36.760Z,10.70
2022-12-05T06:24:40.192Z,9.05
2022-12-05T06:26:43.752Z,9.05
2022-12-05T06:28:49.187Z,9.20
2022-12-05T06:30:52.899Z,9.95
2022-12-05T06:32:56.245Z,9.68
2022-12-05T06:35:07.914Z,11.75
2022-12-05T06:37:11.191Z,8.73
2022-12-05T06:39:14.490Z,9.10
2022-12-05T06:41:21.566Z,9.55
2022-12-05T06:43:25.015Z,9.10
2022-12-05T06:45:29.705Z,8.43
2022-12-05T06:47:33.394Z,11.77
2022-12-05T06:49:38.219Z,10.77
2022-12-05T06:51:41.906Z,12.35
2022-12-05T06:53:45.656Z,12.70
2022-12-05T06:55:57.774Z,10.30
2022-12-05T06:58:01.205Z,17.20
2022-12-05T07:00:24.463Z,15.98
2022-12-05T07:02:29.380Z,16.13
2022-12-05T07:04:32.662Z,9.95
2022-12-05T07:06:37.062Z,11.13
2022-12-05T07:08:41.479Z,13.23
2022-12-05T07:10:51.890Z,9.55
2022-12-05T07:12:56.294Z,9.80
2022-12-05T07:14:59.751Z,10.45
2022-12-05T07:17:03.240Z,12.32
2022-12-05T07:19:08.263Z,15.15
2022-12-05T07:21:16.484Z,11.50
2022-12-05T07:23:19.919Z,10.15
2022-12-05T07:25:23.425Z,9.95
2022-12-05T07:27:28.275Z,13.02
2022-12-05T07:29:32.290Z,9.23
2022-12-05T07:31:37.014Z,10.80
2022-12-05T07:33:40.837Z,9.95
2022-12-05T07:35:45.600Z,9.30
2022-12-05T07:37:48.895Z,9.27
2022-12-05T07:39:53.469Z,9.73
2022-12-05T07:41:56.903Z,10.52
2022-12-05T07:44:04.504Z,10.10
2022-12-05T07:46:11.418Z,10.45
2022-12-05T07:48:18.515Z,8.55
2022-12-05T07:50:22.510Z,10.30
2022-12-05T07:52:30.055Z,9.57
2022-12-05T07:54:34.198Z,9.48
2022-12-05T07:56:37.670Z,10.23
2022-12-05T07:58:41.139Z,16.45
2022-12-05T08:00:44.565Z,18.98
2022-12-05T08:02:47.973Z,20.50
2022-12-05T08:04:51.487Z,21.30
2022-12-05T08:06:54.847Z,9.70
2022-12-05T08:08:59.606Z,10.90
2022-12-05T08:11:06.352Z,9.85
2022-12-05T08:13:09.752Z,9.48
2022-12-05T08:15:13.387Z,8.43
2022-12-05T08:17:18.076Z,9.48
2022-12-05T08:19:27.286Z,8.27
2022-12-05T08:21:31.770Z,9.00
2022-12-05T08:23:36.266Z,8.88
2022-12-05T08:25:41.347Z,9.40
2022-12-05T08:27:44.600Z,11.95
2022-12-05T08:29:48.014Z,10.90
2022-12-05T08:31:52.931Z,11.07
2022-12-05T08:33:59.586Z,9.60
2022-12-05T08:36:04.090Z,10.57
2022-12-05T08:38:07.531Z,9.55
2022-12-05T08:40:12.033Z,11.90
2022-12-05T08:42:16.686Z,8.98
2022-12-05T08:44:20.625Z,9.60
2022-12-05T08:46:24.417Z,8.77
2022-12-05T08:48:29.817Z,10.45
2022-12-05T08:50:33.179Z,10.23
2022-12-05T08:52:36.387Z,9.65
2022-12-05T08:54:40.020Z,9.95
2022-12-05T08:56:43.317Z,9.77
2022-12-05T08:58:47.847Z,9.32
2022-12-05T09:00:51.078Z,9.90
2022-12-05T09:02:59.749Z,10.63
2022-12-05T09:05:19.442Z,9.02
2022-12-05T09:07:26.544Z,9.07
2022-12-05T09:09:29.777Z,10.48
2022-12-05T09:11:36.709Z,10.07
2022-12-05T09:13:40.561Z,10.18
2022-12-05T09:15:45.433Z,10.65
2022-12-05T09:17:49.110Z,10.45
2022-12-05T09:19:55.389Z,8.57
2022-12-05T09:21:58.720Z,11.02
2022-12-05T09:24:02.366Z,12.30
2022-12-05T09:26:08.064Z,12.18
2022-12-05T09:28:11.287Z,12.98
2022-12-05T09:30:18.154Z,9.95
2022-12-05T09:32:22.845Z,11.85
2022-12-05T09:34:26.972Z,7.78
2022-12-05T09:36:33.223Z,8.07
2022-12-05T09:38:36.907Z,7.95
2022-12-05T09:40:44.283Z,10.30
2022-12-05T09:43:00.065Z,11.75
2022-12-05T09:45:25.023Z,8.05
2022-12-05T09:47:45.387Z,8.55
2022-12-05T09:49:52.976Z,8.68
2022-12-05T09:51:57.951Z,9.00
2022-12-05T09:54:01.302Z,10.63
2022-12-05T09:56:07.849Z,9.02
2022-12-05T09:58:29.324Z,9.13
2022-12-05T10:00:34.923Z,8.45
2022-12-05T10:02:51.807Z,9.32
2022-12-05T10:05:03.567Z,7.47
2022-12-05T10:07:14.903Z,7.72
2022-12-05T10:09:40.815Z,10.02
2022-12-05T10:11:54.158Z,10.75
2022-12-05T10:14:09.550Z,11.40
2022-12-05T10:16:17.142Z,11.68
2022-12-05T10:18:33.489Z,8.07
2022-12-05T10:20:44.499Z,12.73
2022-12-05T10:22:51.443Z,10.35
2022-12-05T10:24:58.065Z,9.10
2022-12-05T10:27:05.460Z,7.18
2022-12-05T10:29:26.877Z,7.18
2022-12-05T10:31:35.937Z,6.88
2022-12-05T10:33:51.769Z,8.43
2022-12-05T10:35:54.958Z,9.65
2022-12-05T10:38:01.346Z,6.60
2022-12-05T10:40:05.061Z,6.57
2022-12-05T10:42:13.946Z,6.05
2022-12-05T10:44:17.307Z,6.85
2022-12-05T10:46:20.606Z,7.95
2022-12-05T10:48:24.462Z,6.68
2022-12-05T10:50:33.678Z,5.90
2022-12-05T10:52:37.129Z,6.32
2022-12-05T10:54:48.836Z,5.55
2022-12-05T10:56:53.896Z,5.60
2022-12-05T10:58:59.320Z,5.38
2022-12-05T11:01:13.022Z,5.50
2022-12-05T11:03:30.974Z,6.10
2022-12-05T11:05:40.801Z,6.55
2022-12-05T11:07:49.705Z,5.10
2022-12-05T11:09:59.461Z,5.22
2022-12-05T11:12:14.511Z,6.45
2022-12-05T11:14:26.298Z,4.88
2022-12-05T11:16:33.607Z,5.10
2022-12-05T11:18:37.064Z,5.35
2022-12-05T11:20:42.257Z,4.40
2022-12-05T11:22:50.471Z,5.53
2022-12-05T11:24:53.705Z,4.80
2022-12-05T11:26:58.043Z,4.93
2022-12-05T11:29:01.496Z,6.43
2022-12-05T11:31:17.590Z,5.72
2022-12-05T11:33:23.247Z,5.30
2022-12-05T11:35:30.243Z,4.57
2022-12-05T11:37:39.997Z,6.35
2022-12-05T11:39:43.619Z,5.18
2022-12-05T11:42:10.667Z,4.95
2022-12-05T11:44:33.905Z,4.75
2022-12-05T11:47:01.218Z,5.90
2022-12-05T11:49:28.181Z,6.35
2022-12-05T11:51:42.162Z,5.53
2022-12-05T11:54:35.877Z,6.30
2022-12-05T11:56:49.159Z,4.35
2022-12-05T11:59:35.328Z,5.20
2022-12-05T12:01:49.123Z,6.20
2022-12-05T12:04:25.226Z,4.88
2022-12-05T12:06:33.907Z,6.82
2022-12-05T12:08:52.878Z,5.20
2022-12-05T12:11:07.969Z,5.93
2022-12-05T12:13:32.052Z,5.47
2022-12-05T12:16:03.812Z,5.38
2022-12-05T12:18:19.117Z,4.32
2022-12-05T12:20:40.370Z,4.82
2022-12-05T12:23:30.073Z,3.90
2022-12-05T12:26:03.413Z,3.97
2022-12-05T12:28:33.166Z,5.65
2022-12-05T12:30:53.462Z,4.80
2022-12-05T12:33:07.780Z,4.60
2022-12-05T12:35:32.820Z,5.22
2022-12-05T12:37:59.860Z,5.35
2022-12-05T12:40:23.036Z,4.47
2022-12-05T12:42:29.134Z,3.55
2022-12-05T12:45:05.144Z,4.43
2022-12-05T12:47:17.456Z,4.55
2022-12-05T12:49:50.214Z,4.57
2022-12-05T12:52:01.351Z,4.43
2022-12-05T12:54:40.365Z,4.28
2022-12-05T12:56:57.517Z,6.82
2022-12-05T12:59:44.669Z,4.55
2022-12-05T13:02:36.307Z,6.20
2022-12-05T13:05:14.597Z,4.07
2022-12-05T13:07:33.779Z,6.32
2022-12-05T13:09:41.030Z,4.75
2022-12-05T13:12:27.025Z,4.68
2022-12-05T13:14:43.316Z,2.85
2022-12-05T13:16:51.057Z,2.03
2022-12-05T13:18:56.256Z,2.40
2022-12-05T13:21:04.584Z,2.17
2022-12-05T13:23:09.227Z,3.25
2022-12-05T13:25:16.540Z,1.95
2022-12-05T13:27:22.094Z,7.95
2022-12-05T13:29:32.680Z,7.45
2022-12-05T13:31:38.680Z,9.48
2022-12-05T13:33:49.616Z,2.85
2022-12-05T13:36:21.578Z,2.65
2022-12-05T13:38:48.365Z,3.50
2022-12-05T13:41:11.395Z,2.92
2022-12-05T13:43:18.685Z,4.10
2022-12-05T13:45:22.143Z,4.65
2022-12-05T13:47:33.523Z,8.75
2022-12-05T13:49:46.038Z,2.65
2022-12-05T13:51:51.257Z,2.33
2022-12-05T13:54:07.737Z,1.85
2022-12-05T13:56:28.995Z,4.40
2022-12-05T13:58:47.657Z,4.90
2022-12-05T14:00:52.218Z,2.20
2022-12-05T14:03:04.756Z,2.10
2022-12-05T14:05:51.773Z,1.88
2022-12-05T14:08:03.448Z,3.80
2022-12-05T14:10:09.432Z,2.70
2022-12-05T14:12:47.606Z,2.60
2022-12-05T14:15:04.036Z,2.72
2022-12-05T14:17:09.715Z,3.80
2022-12-05T14:19:34.745Z,3.35
2022-12-05T14:21:45.959Z,2.50
2022-12-05T14:24:06.924Z,64.95
2022-12-05T14:26:32.516Z,9.02
2022-12-05T14:29:04.948Z,5.88
2022-12-05T14:31:26.428Z,7.57
2022-12-05T14:33:29.974Z,6.53
2022-12-05T14:35:43.169Z,6.38
2022-12-05T14:37:54.993Z,10.45
2022-12-05T14:40:01.589Z,9.43
2022-12-05T14:42:21.734Z,9.10
2022-12-05T14:44:30.190Z,3.22
2022-12-05T14:46:35.192Z,3.28
2022-12-05T14:48:48.654Z,5.55
2022-12-05T14:50:53.662Z,4.20
2022-12-05T14:53:25.799Z,5.80
2022-12-05T14:55:33.810Z,2.92
2022-12-05T14:57:46.787Z,4.68
2022-12-05T14:59:56.113Z,2.85
2022-12-05T15:02:07.528Z,3.28
2022-12-05T15:04:21.052Z,2.88
2022-12-05T15:06:25.934Z,3.53
2022-12-05T15:08:36.147Z,3.25
2022-12-05T15:10:41.965Z,6.60
2022-12-05T15:12:50.295Z,3.17
2022-12-05T15:15:13.560Z,3.10
2022-12-05T15:17:24.507Z,2.60
2022-12-05T15:19:43.221Z,2.47
2022-12-05T15:21:50.505Z,2.90
2022-12-05T15:24:00.572Z,2.60
2022-12-05T15:26:30.660Z,4.25
2022-12-05T15:28:30.308Z,2.92
2022-12-05T15:30:37.686Z,5.85
2022-12-05T15:32:42.618Z,5.05
2022-12-05T15:34:50.478Z,5.25
2022-12-05T15:36:59.451Z,7.72
2022-12-05T15:39:16.041Z,6.25
2022-12-05T15:41:21.234Z,6.50
2022-12-05T15:43:33.773Z,5.80
2022-12-05T15:45:37.339Z,9.20
2022-12-05T15:47:41.763Z,5.68
2022-12-05T15:49:45.227Z,5.90
2022-12-05T15:51:50.220Z,5.10
2022-12-05T15:53:59.676Z,6.65
2022-12-05T15:56:09.937Z,6.15
2022-12-05T15:58:23.425Z,5.40
2022-12-05T16:00:28.235Z,5.07
2022-12-05T16:02:42.446Z,10.10
2022-12-05T16:04:51.221Z,7.60
2022-12-05T16:06:57.189Z,8.77
2022-12-05T16:09:02.364Z,4.47
2022-12-05T16:11:10.250Z,6.63
2022-12-05T16:13:17.864Z,4.38
2022-12-05T16:15:26.251Z,6.15
2022-12-05T16:17:35.303Z,6.65
2022-12-05T16:19:39.210Z,8.77
2022-12-05T16:21:46.334Z,4.78
2022-12-05T16:23:49.805Z,4.47
2022-12-05T16:25:53.450Z,4.68
2022-12-05T16:28:00.140Z,9.95
2022-12-05T16:30:21.227Z,8.85
2022-12-05T16:32:26.495Z,5.38
2022-12-05T16:34:33.716Z,5.10
2022-12-05T16:36:37.276Z,10.63
2022-12-05T16:38:43.271Z,14.30
2022-12-05T16:40:59.387Z,9.18
2022-12-05T16:43:04.517Z,9.10
2022-12-05T16:45:39.717Z,14.65
2022-12-05T16:48:01.960Z,8.90
2022-12-05T16:50:32.949Z,6.20
2022-12-05T16:52:37.350Z,7.25
2022-12-05T16:54:40.628Z,10.27
2022-12-05T16:56:43.863Z,12.73
2022-12-05T16:58:47.161Z,13.88
2022-12-05T17:00:52.875Z,22.73
2022-12-05T17:03:18.456Z,24.05
2022-12-05T17:05:19.376Z,32.10
2022-12-05T17:07:22.603Z,27.05
2022-12-05T17:09:29.726Z,30.63
2022-12-05T17:11:36.977Z,29.65
2022-12-05T17:13:40.384Z,11.98
2022-12-05T17:15:44.017Z,13.40
2022-12-05T17:17:48.785Z,6.15
2022-12-05T17:19:51.942Z,11.60
2022-12-05T17:21:55.190Z,23.85
2022-12-05T17:23:58.499Z,28.80
2022-12-05T17:26:02.022Z,17.90
2022-12-05T17:28:05.539Z,8.68
2022-12-05T17:30:11.047Z,7.40
2022-12-05T17:32:15.422Z,7.30
2022-12-05T17:34:20.018Z,8.75
2022-12-05T17:36:23.797Z,7.93
2022-12-05T17:38:27.065Z,7.03
2022-12-05T17:40:30.380Z,7.22
2022-12-05T17:44:15.921Z,8.25
2022-12-05T17:46:21.641Z,18.10
2022-12-05T17:48:26.560Z,16.58
2022-12-05T17:50:31.408Z,12.52
2022-12-05T17:52:35.210Z,10.38
2022-12-05T17:54:38.809Z,10.00
2022-12-05T17:56:45.584Z,13.73
2022-12-05T17:58:55.079Z,14.43
2022-12-05T18:00:58.977Z,14.32
2022-12-05T18:03:02.412Z,9.70
2022-12-05T18:05:06.595Z,6.78
2022-12-05T18:07:11.204Z,9.68
2022-12-05T18:09:14.736Z,12.38
2022-12-05T18:11:18.025Z,9.25
2022-12-05T18:13:21.382Z,9.13
2022-12-05T18:15:25.136Z,11.82
2022-12-05T18:17:28.650Z,11.48
2022-12-05T18:19:31.856Z,10.57
2022-12-05T18:21:35.085Z,9.15
2022-12-05T18:23:40.757Z,8.50
2022-12-05T18:25:44.025Z,9.65
2022-12-05T18:27:47.325Z,10.60
2022-12-05T18:29:50.750Z,7.82
2022-12-05T18:31:59.995Z,6.13
2022-12-05T18:34:03.508Z,7.88
2022-12-05T18:36:09.427Z,5.72
2022-12-05T18:38:13.107Z,7.60
2022-12-05T18:40:18.170Z,6.57
2022-12-05T18:42:21.431Z,8.65
2022-12-05T18:44:33.292Z,12.73
2022-12-05T18:46:37.194Z,13.13
2022-12-05T18:48:46.112Z,12.30
2022-12-05T18:50:51.160Z,13.80
2022-12-05T18:52:54.382Z,10.60
2022-12-05T18:55:15.729Z,10.45
2022-12-05T18:57:21.586Z,9.23
2022-12-05T18:59:25.712Z,21.33
2022-12-05T19:01:30.844Z,12.25
2022-12-05T19:03:34.517Z,7.65
2022-12-05T19:05:37.847Z,8.00
2022-12-05T19:07:41.805Z,18.92
2022-12-05T19:09:45.052Z,15.32
2022-12-05T19:11:50.917Z,6.55
2022-12-05T19:13:57.912Z,5.90
2022-12-05T19:16:03.919Z,8.05
2022-12-05T19:18:07.483Z,9.65
2022-12-05T19:20:12.329Z,9.48
2022-12-05T19:22:15.868Z,8.38
2022-12-05T19:24:20.515Z,6.28
2022-12-05T19:26:24.381Z,8.30
2022-12-05T19:28:27.687Z,7.97
2022-12-05T19:30:32.355Z,9.18
2022-12-05T19:32:40.140Z,8.00
2022-12-05T19:34:45.981Z,7.55
2022-12-05T19:36:49.305Z,5.03
2022-12-05T19:38:54.943Z,5.90
2022-12-05T19:40:59.361Z,7.30
2022-12-05T19:43:04.347Z,5.95
2022-12-05T19:45:12.407Z,5.75
2022-12-05T19:47:21.084Z,6.13
2022-12-05T19:49:25.322Z,6.90
2022-12-05T19:51:29.466Z,4.72
2022-12-05T19:53:35.640Z,5.88
2022-12-05T19:55:39.026Z,5.88
2022-12-05T19:57:42.459Z,5.70
2022-12-05T19:59:45.784Z,6.47
2022-12-05T20:01:49.170Z,6.43
2022-12-05T20:03:56.964Z,5.13
2022-12-05T20:06:00.996Z,5.40
2022-12-05T20:08:04.511Z,4.88
2022-12-05T20:10:08.902Z,4.60
2022-12-05T20:12:12.456Z,7.97
2022-12-05T20:14:16.593Z,5.53
2022-12-05T20:16:25.724Z,5.32
2022-12-05T20:18:29.270Z,5.60
2022-12-05T20:20:34.015Z,5.72
2022-12-05T20:22:37.316Z,5.50
2022-12-05T20:24:40.800Z,5.25
2022-12-05T20:26:46.055Z,6.20
2022-12-05T20:28:49.901Z,5.43
2022-12-05T20:30:53.624Z,4.50
2022-12-05T20:32:59.894Z,5.45
2022-12-05T20:35:03.428Z,5.35
2022-12-05T20:37:11.428Z,5.43
2022-12-05T20:39:17.566Z,4.78
2022-12-05T20:41:20.972Z,4.97
2022-12-05T20:43:24.481Z,5.00
2022-12-05T20:45:27.873Z,4.90
2022-12-05T20:47:31.449Z,5.72
2022-12-05T20:49:34.895Z,5.80
2022-12-05T20:51:44.418Z,4.90
2022-12-05T20:53:49.365Z,6.97
2022-12-05T20:55:54.627Z,6.38
2022-12-05T20:58:01.253Z,7.32
2022-12-05T21:00:10.242Z,10.75
2022-12-05T21:02:13.827Z,9.55
2022-12-05T21:04:17.230Z,8.68
2022-12-05T21:06:26.044Z,6.13
2022-12-05T21:08:29.430Z,5.72
2022-12-05T21:10:34.176Z,5.40
2022-12-05T21:12:37.576Z,4.65
2022-12-05T21:14:40.872Z,4.97
2022-12-05T21:16:44.369Z,6.25
2022-12-05T21:18:48.578Z,7.47
2022-12-05T21:20:59.020Z,6.95
2022-12-05T21:23:02.842Z,10.32
2022-12-05T21:25:06.725Z,7.03
2022-12-05T21:27:11.880Z,6.35
2022-12-05T21:29:15.383Z,5.78
2022-12-05T21:31:21.722Z,5.10
2022-12-05T21:33:28.844Z,5.20
2022-12-05T21:35:38.718Z,4.90
2022-12-05T21:37:42.252Z,5.53
2022-12-05T21:39:45.977Z,5.82
2022-12-05T21:41:49.944Z,5.30
2022-12-05T21:43:55.995Z,5.00
2022-12-05T21:45:59.913Z,5.32
2022-12-05T21:48:03.485Z,5.88
2022-12-05T21:50:16.230Z,5.63
2022-12-05T21:52:19.600Z,5.90
2022-12-05T21:54:22.930Z,6.00
2022-12-05T21:56:26.495Z,5.97
2022-12-05T21:58:30.276Z,6.53
2022-12-05T22:00:34.989Z,7.38
2022-12-05T22:02:38.564Z,7.03
2022-12-05T22:04:41.967Z,7.10
2022-12-05T22:06:45.227Z,7.45
2022-12-05T22:08:48.817Z,9.23
2022-12-05T22:10:52.320Z,8.90
2022-12-05T22:12:55.629Z,8.15
2022-12-05T22:14:59.229Z,8.88
2022-12-05T22:17:03.894Z,7.68
2022-12-05T22:19:07.496Z,8.70
2022-12-05T22:21:15.748Z,7.20
2022-12-05T22:23:19.115Z,6.97
2022-12-05T22:25:22.439Z,6.68
2022-12-05T22:27:25.945Z,5.78
2022-12-05T22:29:29.371Z,7.30
2022-12-05T22:31:32.930Z,5.70
2022-12-05T22:33:38.114Z,5.65
2022-12-05T22:35:41.555Z,6.93
2022-12-05T22:37:44.920Z,4.78
2022-12-05T22:39:48.284Z,5.53
2022-12-05T22:41:51.731Z,5.20
2022-12-05T22:43:58.428Z,5.65
2022-12-05T22:46:06.110Z,5.45
2022-12-05T22:48:09.519Z,6.80
2022-12-05T22:50:14.371Z,6.35
2022-12-05T22:52:17.969Z,5.80
2022-12-05T22:54:25.860Z,5.43
2022-12-05T22:56:32.065Z,5.20
2022-12-05T22:58:35.914Z,7.10
2022-12-05T23:00:39.811Z,7.47
2022-12-05T23:02:43.144Z,6.85
2022-12-05T23:04:46.650Z,5.75
2022-12-05T23:06:51.312Z,8.25
2022-12-05T23:08:55.515Z,6.70
2022-12-05T23:10:59.000Z,5.70
2022-12-05T23:13:02.448Z,4.93
2022-12-05T23:15:07.111Z,5.22
2022-12-05T23:17:12.691Z,5.47
2022-12-05T23:19:16.034Z,5.15
2022-12-05T23:21:22.961Z,4.70
2022-12-05T23:23:27.805Z,4.30
2022-12-05T23:25:31.101Z,4.72
2022-12-05T23:27:44.057Z,5.05
2022-12-05T23:29:47.659Z,5.10
2022-12-05T23:31:55.083Z,5.18
2022-12-05T23:34:03.878Z,5.47
2022-12-05T23:36:09.327Z,5.55
2022-12-05T23:38:13.189Z,5.40
2022-12-05T23:40:18.852Z,5.25
2022-12-05T23:42:22.265Z,5.13
2022-12-05T23:44:25.744Z,5.30
2022-12-05T23:46:29.961Z,5.13
2022-12-05T23:48:34.540Z,5.35
2022-12-05T23:50:38.075Z,5.32
2022-12-05T23:52:41.523Z,5.28
2022-12-05T23:54:45.168Z,5.47
2022-12-05T23:56:50.049Z,4.75
2022-12-05T23:58:54.809Z,5.25
